Time;durP1;ratioP1;P1;durP2;ratioP2;P2;SDS_P1;SDS_P2;PMS_P1;PMS_P2;Temp;Humidity;BMP_temperature;BMP_pressure;BME280_temperature;BME280_humidity;BME280_pressure;Samples;Min_cycle;Max_cycle;Signal;HPM_P1;HPM_P2
2021/03/15 00:00:12;;;;;;;4.22;1.50;;;7.70;68.40;;;;;;5066132;28;20044;-61
2021/03/15 00:02:41;;;;;;;2.53;0.70;;;7.70;68.40;;;;;;5070975;28;20728;-61
2021/03/15 00:05:10;;;;;;;3.58;0.60;;;7.70;68.20;;;;;;5070812;28;20134;-62
2021/03/15 00:07:37;;;;;;;3.85;0.63;;;7.70;68.60;;;;;;5073048;28;20051;-62
2021/03/15 00:10:05;;;;;;;2.25;0.82;;;7.70;68.70;;;;;;5051461;28;20044;-62
2021/03/15 00:12:32;;;;;;;3.10;0.43;;;7.60;68.50;;;;;;5068905;28;20041;-62
2021/03/15 00:14:59;;;;;;;2.00;0.70;;;7.60;68.50;;;;;;5071669;28;20072;-62
2021/03/15 00:17:25;;;;;;;2.95;0.77;;;7.60;68.60;;;;;;5071692;28;20040;-62
2021/03/15 00:19:52;;;;;;;3.67;0.57;;;7.60;69.00;;;;;;5051814;28;20523;-62
2021/03/15 00:22:20;;;;;;;0.90;0.40;;;7.50;69.10;;;;;;5068166;28;20139;-62
2021/03/15 00:24:46;;;;;;;3.67;0.85;;;7.50;69.20;;;;;;5066785;28;20040;-62
2021/03/15 00:27:13;;;;;;;3.00;0.80;;;7.50;69.50;;;;;;5071632;28;20095;-61
2021/03/15 00:29:39;;;;;;;1.60;0.55;;;7.50;70.60;;;;;;5073140;28;20055;-61
2021/03/15 00:32:07;;;;;;;5.60;0.98;;;7.50;69.80;;;;;;5066122;28;20056;-61
2021/03/15 00:34:33;;;;;;;3.35;0.75;;;7.50;70.10;;;;;;5062379;28;20543;-62
2021/03/15 00:37:01;;;;;;;2.33;1.08;;;7.40;70.60;;;;;;5051848;28;20059;-62
2021/03/15 00:39:27;;;;;;;4.18;0.93;;;7.40;70.40;;;;;;5070065;28;20060;-62
2021/03/15 00:41:54;;;;;;;2.83;1.02;;;7.50;70.50;;;;;;5068328;28;20112;-62
2021/03/15 00:44:22;;;;;;;3.63;1.05;;;7.50;70.70;;;;;;5035496;28;20044;-62
2021/03/15 00:46:48;;;;;;;2.42;0.90;;;7.50;71.00;;;;;;5070638;28;20072;-62
2021/03/15 00:49:15;;;;;;;2.83;0.88;;;7.50;70.50;;;;;;5053598;28;20411;-62
2021/03/15 00:51:42;;;;;;;3.83;1.17;;;7.50;70.80;;;;;;5051369;28;20067;-62
2021/03/15 00:54:08;;;;;;;2.35;1.00;;;7.50;70.50;;;;;;5049176;28;20051;-62
2021/03/15 00:56:35;;;;;;;3.92;0.77;;;7.50;70.40;;;;;;5050912;28;20036;-62
2021/03/15 00:59:02;;;;;;;4.72;0.90;;;7.50;70.40;;;;;;5051574;28;20045;-62
2021/03/15 01:01:41;;;;;;;2.00;0.77;;;7.50;70.60;;;;;;5051235;28;20495;-62
2021/03/15 01:04:11;;;;;;;3.60;1.00;;;7.50;71.10;;;;;;5053168;28;20250;-62
2021/03/15 01:06:52;;;;;;;3.30;0.98;;;7.50;71.00;;;;;;5053323;28;20048;-62
2021/03/15 01:09:28;;;;;;;3.45;0.75;;;7.50;70.80;;;;;;5049728;28;20140;-62
2021/03/15 01:11:55;;;;;;;4.05;1.27;;;7.50;70.80;;;;;;5051855;28;20521;-62
2021/03/15 01:14:22;;;;;;;3.20;0.90;;;7.50;71.20;;;;;;5051993;28;20052;-62
2021/03/15 01:17:12;;;;;;;3.95;1.15;;;7.50;71.30;;;;;;5055410;28;20057;-62
2021/03/15 01:19:42;;;;;;;3.50;1.10;;;7.50;71.40;;;;;;5066851;28;20048;-62
2021/03/15 01:22:09;;;;;;;2.95;1.10;;;7.50;71.40;;;;;;5056869;28;20052;-62
2021/03/15 01:24:36;;;;;;;3.05;0.80;;;7.50;71.50;;;;;;5058257;28;20510;-62
2021/03/15 01:27:03;;;;;;;2.85;0.80;;;7.40;71.40;;;;;;5063520;28;20041;-62
2021/03/15 01:29:29;;;;;;;2.65;1.00;;;7.50;72.00;;;;;;5039916;28;20041;-62
2021/03/15 01:31:56;;;;;;;3.00;0.75;;;7.50;71.50;;;;;;5066864;28;20853;-62
2021/03/15 01:34:22;;;;;;;1.90;0.70;;;7.40;71.70;;;;;;5069957;28;20542;-62
2021/03/15 01:37:03;;;;;;;2.35;0.80;;;7.40;71.50;;;;;;5068979;28;20052;-61
2021/03/15 01:39:31;;;;;;;2.65;0.82;;;7.40;71.90;;;;;;5047815;28;20037;-62
2021/03/15 01:41:59;;;;;;;5.65;1.10;;;7.40;71.80;;;;;;5048043;28;20059;-62
2021/03/15 01:44:26;;;;;;;3.85;0.93;;;7.50;72.00;;;;;;5069395;28;20059;-62
2021/03/15 01:46:53;;;;;;;3.70;0.57;;;7.40;72.20;;;;;;5067584;28;20048;-61
2021/03/15 01:49:20;;;;;;;2.53;1.02;;;7.50;72.30;;;;;;5063652;28;21633;-62
2021/03/15 01:51:47;;;;;;;1.73;0.52;;;7.50;72.20;;;;;;5070449;28;20044;-62
2021/03/15 01:54:18;;;;;;;1.58;0.73;;;7.40;72.10;;;;;;5051698;28;20048;-62
2021/03/15 01:56:46;;;;;;;2.30;0.90;;;7.40;72.00;;;;;;5068744;28;20036;-62
2021/03/15 01:59:16;;;;;;;4.47;0.80;;;7.40;72.30;;;;;;5068664;28;20047;-62
2021/03/15 02:01:48;;;;;;;2.17;0.73;;;7.50;72.50;;;;;;5069828;28;20044;-62
2021/03/15 02:04:15;;;;;;;5.47;0.82;;;7.40;72.50;;;;;;5069399;28;20051;-62
2021/03/15 02:06:45;;;;;;;2.20;1.00;;;7.50;73.40;;;;;;5051289;28;20045;-62
2021/03/15 02:09:12;;;;;;;3.47;1.15;;;7.50;74.10;;;;;;5050389;28;20046;-62
2021/03/15 02:12:04;;;;;;;1.95;0.70;;;7.50;75.60;;;;;;5065158;28;20045;-62
2021/03/15 02:14:53;;;;;;;3.15;0.73;;;7.50;77.30;;;;;;5066567;28;20115;-62
2021/03/15 02:17:45;;;;;;;6.80;1.23;;;7.50;79.20;;;;;;5064020;28;20040;-62
2021/03/15 02:20:35;;;;;;;2.33;0.98;;;7.50;81.30;;;;;;5041313;28;20102;-62
2021/03/15 02:23:07;;;;;;;2.55;1.00;;;7.50;83.10;;;;;;5067286;28;20036;-62
2021/03/15 02:25:49;;;;;;;1.77;0.70;;;7.40;83.70;;;;;;5044538;28;20060;-62
2021/03/15 02:28:48;;;;;;;2.97;0.82;;;7.40;85.00;;;;;;5068002;28;20059;-62
2021/03/15 02:31:49;;;;;;;2.97;1.10;;;7.40;87.00;;;;;;5048979;28;20491;-62
2021/03/15 02:34:38;;;;;;;3.65;1.40;;;7.40;87.90;;;;;;5069764;28;20047;-61
2021/03/15 02:37:12;;;;;;;3.17;1.00;;;7.40;88.00;;;;;;5072409;28;20052;-62
2021/03/15 02:39:42;;;;;;;2.35;0.77;;;7.30;89.90;;;;;;5072339;28;20056;-62
2021/03/15 02:42:13;;;;;;;2.60;0.93;;;7.20;90.30;;;;;;5070305;28;20824;-62
2021/03/15 02:44:43;;;;;;;3.90;1.13;;;7.20;90.00;;;;;;5054496;28;20046;-62
2021/03/15 02:47:13;;;;;;;3.22;1.40;;;7.10;90.70;;;;;;5071551;28;20052;-62
2021/03/15 02:49:43;;;;;;;5.10;1.50;;;7.00;91.60;;;;;;5067528;28;20046;-62
2021/03/15 02:52:11;;;;;;;5.35;1.70;;;7.00;92.70;;;;;;5073543;28;20396;-62
2021/03/15 02:54:39;;;;;;;5.25;1.90;;;6.90;92.60;;;;;;5053586;28;20394;-62
2021/03/15 02:57:07;;;;;;;7.95;1.85;;;6.80;93.20;;;;;;5049613;28;20147;-61
2021/03/15 02:59:37;;;;;;;3.65;1.35;;;6.70;93.70;;;;;;5074812;28;20494;-61
2021/03/15 03:02:04;;;;;;;4.32;1.42;;;6.60;94.40;;;;;;5075088;28;20044;-61
2021/03/15 03:04:31;;;;;;;6.68;1.50;;;6.50;95.10;;;;;;5053400;28;20067;-62
2021/03/15 03:06:59;;;;;;;3.38;1.40;;;6.50;96.10;;;;;;5046088;28;20036;-61
2021/03/15 03:09:26;;;;;;;5.65;1.35;;;6.40;97.10;;;;;;5048618;28;20041;-62
2021/03/15 03:11:53;;;;;;;4.20;1.63;;;6.40;98.00;;;;;;5059254;28;20078;-62
2021/03/15 03:14:21;;;;;;;5.30;1.40;;;6.40;98.70;;;;;;5052328;28;20048;-61
2021/03/15 03:16:50;;;;;;;4.75;1.60;;;6.40;99.80;;;;;;5056167;28;20250;-62
2021/03/15 03:19:19;;;;;;;4.30;1.58;;;6.40;99.90;;;;;;5063829;28;20040;-62
2021/03/15 03:21:47;;;;;;;4.55;1.67;;;6.40;99.90;;;;;;5072660;28;20438;-61
2021/03/15 03:24:14;;;;;;;3.42;1.40;;;6.40;99.90;;;;;;5071930;28;20491;-61
2021/03/15 03:26:42;;;;;;;3.88;1.17;;;6.40;99.90;;;;;;5073337;28;20048;-61
2021/03/15 03:29:11;;;;;;;2.67;1.17;;;6.40;99.90;;;;;;5072004;28;20102;-62
2021/03/15 03:31:40;;;;;;;4.95;1.65;;;6.40;99.90;;;;;;5072035;28;20047;-61
2021/03/15 03:34:08;;;;;;;4.13;1.40;;;6.40;99.90;;;;;;5071408;28;20391;-61
2021/03/15 03:36:35;;;;;;;3.05;1.10;;;6.40;99.90;;;;;;5071885;28;20041;-61
2021/03/15 03:39:04;;;;;;;2.85;1.42;;;6.30;99.90;;;;;;5072961;28;20539;-61
2021/03/15 03:41:30;;;;;;;4.75;1.45;;;6.40;99.90;;;;;;5070531;28;20045;-61
2021/03/15 03:44:07;;;;;;;5.07;1.50;;;6.40;99.90;;;;;;5047971;28;20043;-61
2021/03/15 03:46:34;;;;;;;4.50;1.40;;;6.40;99.90;;;;;;5068914;28;20049;-62
2021/03/15 03:49:04;;;;;;;6.93;2.03;;;6.30;99.90;;;;;;5055187;28;20110;-62
2021/03/15 03:51:40;;;;;;;4.25;1.95;;;6.40;99.90;;;;;;5070843;28;20051;-61
2021/03/15 03:54:17;;;;;;;4.70;1.55;;;6.40;99.90;;;;;;5064681;28;20033;-61
2021/03/15 03:57:05;;;;;;;4.03;1.92;;;6.40;99.90;;;;;;5071337;28;20043;-61
2021/03/15 03:59:35;;;;;;;6.78;1.90;;;6.40;99.90;;;;;;5073943;28;20098;-61
2021/03/15 04:02:03;;;;;;;6.28;1.52;;;6.30;99.90;;;;;;5063299;28;20071;-61
2021/03/15 04:04:37;;;;;;;4.40;2.00;;;6.40;99.90;;;;;;5070096;28;20060;-61
2021/03/15 04:07:05;;;;;;;4.70;2.10;;;6.30;99.90;;;;;;5068266;28;20047;-61
2021/03/15 04:09:35;;;;;;;4.18;1.95;;;6.30;99.90;;;;;;5071463;28;20448;-61
2021/03/15 04:12:11;;;;;;;4.93;1.42;;;6.30;99.90;;;;;;5051463;28;20052;-62
2021/03/15 04:14:51;;;;;;;3.92;1.65;;;6.30;99.90;;;;;;5054290;28;20045;-62
2021/03/15 04:17:22;;;;;;;4.60;1.63;;;6.30;99.90;;;;;;5052500;28;20044;-61
2021/03/15 04:20:02;;;;;;;4.28;1.70;;;6.30;99.90;;;;;;5071447;28;20094;-61
2021/03/15 04:22:30;;;;;;;4.93;1.80;;;6.30;99.90;;;;;;5071482;28;20052;-61
2021/03/15 04:24:59;;;;;;;6.30;2.00;;;6.30;99.90;;;;;;5070273;28;20052;-61
2021/03/15 04:27:28;;;;;;;4.85;1.80;;;6.30;99.90;;;;;;5057134;28;20040;-62
2021/03/15 04:29:56;;;;;;;3.55;1.98;;;6.20;99.90;;;;;;5070145;28;20049;-61
2021/03/15 04:32:24;;;;;;;6.65;1.63;;;6.20;99.90;;;;;;5071926;28;20068;-61
2021/03/15 04:34:53;;;;;;;5.03;2.13;;;6.20;99.90;;;;;;5071614;28;20415;-61
2021/03/15 04:37:21;;;;;;;5.95;2.10;;;6.20;99.90;;;;;;5049809;28;20056;-61
2021/03/15 04:39:48;;;;;;;3.72;1.73;;;6.20;99.90;;;;;;5040021;28;20040;-61
2021/03/15 04:42:18;;;;;;;5.45;1.98;;;6.10;99.90;;;;;;5051222;28;20484;-61
2021/03/15 04:44:45;;;;;;;6.57;2.22;;;6.10;99.90;;;;;;5054142;28;20671;-62
2021/03/15 04:47:13;;;;;;;6.00;1.83;;;6.10;99.90;;;;;;5057143;28;20048;-61
2021/03/15 04:49:41;;;;;;;3.53;1.85;;;6.10;99.90;;;;;;5060325;28;20041;-62
2021/03/15 04:52:21;;;;;;;3.92;1.90;;;6.10;99.90;;;;;;5065487;28;20041;-62
2021/03/15 04:54:48;;;;;;;4.95;1.65;;;6.10;99.90;;;;;;5052116;28;20048;-61
2021/03/15 04:57:15;;;;;;;5.05;1.63;;;6.10;99.90;;;;;;5070048;28;20052;-61
2021/03/15 04:59:44;;;;;;;6.25;2.35;;;6.00;99.90;;;;;;5070579;28;20033;-61
2021/03/15 05:02:11;;;;;;;4.75;2.08;;;6.00;99.90;;;;;;5028567;28;20048;-61
2021/03/15 05:04:38;;;;;;;7.80;2.92;;;6.00;99.90;;;;;;5067264;28;20426;-61
2021/03/15 05:07:05;;;;;;;8.38;2.85;;;6.00;99.90;;;;;;5071113;28;20047;-62
2021/03/15 05:09:50;;;;;;;8.30;3.75;;;6.00;99.90;;;;;;5051264;28;20099;-61
2021/03/15 05:12:17;;;;;;;10.75;4.57;;;6.00;99.90;;;;;;5058054;28;20041;-62
2021/03/15 05:14:44;;;;;;;9.40;4.05;;;6.00;99.90;;;;;;5046361;28;20032;-62
2021/03/15 05:17:12;;;;;;;7.60;3.80;;;5.90;99.90;;;;;;5070930;28;20043;-62
2021/03/15 05:19:42;;;;;;;10.57;3.90;;;6.00;99.90;;;;;;5066133;28;20070;-61
2021/03/15 05:22:11;;;;;;;8.15;3.00;;;5.90;99.90;;;;;;5044184;28;20056;-61
2021/03/15 05:24:39;;;;;;;11.15;3.15;;;5.90;99.90;;;;;;5047184;28;20071;-62
2021/03/15 05:27:08;;;;;;;16.40;4.55;;;5.90;99.90;;;;;;5045018;28;20064;-61
2021/03/15 05:29:36;;;;;;;18.45;5.18;;;5.90;99.90;;;;;;5059034;28;20048;-61
2021/03/15 05:32:04;;;;;;;22.58;4.75;;;5.90;99.90;;;;;;5069113;28;20483;-62
2021/03/15 05:34:32;;;;;;;17.95;4.22;;;5.90;99.90;;;;;;5053367;28;20036;-61
2021/03/15 05:37:01;;;;;;;13.02;3.90;;;5.90;99.90;;;;;;5051163;28;20033;-62
2021/03/15 05:39:28;;;;;;;7.13;3.15;;;5.90;99.90;;;;;;5062572;28;20045;-62
2021/03/15 05:41:57;;;;;;;11.65;4.28;;;5.90;99.90;;;;;;5038302;28;20491;-62
2021/03/15 05:45:03;;;;;;;9.02;4.07;;;5.90;99.90;;;;;;5063335;28;20059;-61
2021/03/15 05:47:41;;;;;;;5.63;3.38;;;5.90;99.90;;;;;;5004599;28;20104;-61
2021/03/15 05:50:43;;;;;;;8.82;3.40;;;5.90;99.90;;;;;;5009408;28;20046;-61
2021/03/15 05:53:49;;;;;;;13.77;5.18;;;5.90;99.90;;;;;;5007913;28;20366;-61
2021/03/15 05:56:37;;;;;;;11.10;4.47;;;5.90;99.90;;;;;;5009094;28;20057;-61
2021/03/15 05:59:22;;;;;;;22.73;7.63;;;5.90;99.90;;;;;;5006459;28;20061;-61
2021/03/15 06:02:10;;;;;;;24.80;7.07;;;5.90;99.90;;;;;;5006508;28;20042;-62
2021/03/15 06:05:24;;;;;;;21.15;7.53;;;5.90;99.90;;;;;;5002315;28;20050;-62
2021/03/15 06:08:01;;;;;;;26.73;7.45;;;5.90;99.90;;;;;;4999899;28;20045;-61
2021/03/15 06:10:58;;;;;;;20.13;5.32;;;5.90;99.90;;;;;;4992035;28;20053;-62
2021/03/15 06:13:28;;;;;;;18.35;6.85;;;5.90;99.90;;;;;;4991388;28;20065;-62
2021/03/15 06:15:58;;;;;;;26.70;7.07;;;5.90;99.90;;;;;;4990680;28;20437;-61
2021/03/15 06:18:25;;;;;;;27.08;7.55;;;5.90;99.90;;;;;;5005409;28;20050;-61
2021/03/15 06:20:52;;;;;;;16.70;5.88;;;5.90;99.90;;;;;;4990916;28;20056;-62
2021/03/15 06:23:18;;;;;;;15.00;5.10;;;5.80;99.90;;;;;;5008755;28;20157;-62
2021/03/15 06:25:47;;;;;;;10.23;4.00;;;5.70;99.90;;;;;;5055733;28;20059;-61
2021/03/15 06:28:15;;;;;;;8.25;3.53;;;5.80;99.90;;;;;;5049510;28;20056;-62
2021/03/15 06:30:44;;;;;;;7.55;3.08;;;5.80;99.90;;;;;;5061781;28;20105;-61
2021/03/15 06:33:12;;;;;;;11.18;3.15;;;5.90;99.90;;;;;;5057496;28;20044;-62
2021/03/15 06:35:48;;;;;;;7.07;3.17;;;6.00;99.90;;;;;;5057578;28;20048;-61
2021/03/15 06:38:19;;;;;;;9.55;3.13;;;6.00;99.90;;;;;;5030069;28;20094;-61
2021/03/15 06:41:04;;;;;;;7.88;3.97;;;6.00;99.90;;;;;;5067808;28;20487;-62
2021/03/15 06:43:31;;;;;;;6.78;3.13;;;5.90;99.90;;;;;;5069550;28;20059;-61
2021/03/15 06:45:58;;;;;;;8.07;3.20;;;5.90;99.90;;;;;;5065410;28;20048;-61
2021/03/15 06:48:26;;;;;;;6.68;2.58;;;5.90;99.90;;;;;;5050394;28;20051;-61
2021/03/15 06:50:55;;;;;;;7.80;3.08;;;6.00;99.90;;;;;;5047899;28;20539;-61
2021/03/15 06:53:22;;;;;;;7.95;3.30;;;6.00;99.90;;;;;;5042191;28;20056;-62
2021/03/15 06:55:53;;;;;;;6.63;2.90;;;6.10;99.90;;;;;;5048077;28;20056;-61
2021/03/15 06:58:26;;;;;;;6.03;3.05;;;6.10;99.90;;;;;;5049672;28;20072;-61
2021/03/15 07:01:32;;;;;;;8.30;2.65;;;6.20;99.90;;;;;;5062934;28;20033;-61
2021/03/15 07:04:12;;;;;;;7.82;3.40;;;6.30;99.90;;;;;;4981552;28;20054;-62
2021/03/15 07:06:43;;;;;;;5.40;2.92;;;6.40;99.90;;;;;;4988674;28;20065;-62
2021/03/15 07:09:12;;;;;;;6.50;2.95;;;6.50;99.40;;;;;;4989596;28;20414;-62
2021/03/15 07:11:39;;;;;;;8.25;3.50;;;6.60;97.80;;;;;;4970941;28;20050;-62
2021/03/15 07:14:06;;;;;;;10.07;4.03;;;6.60;97.40;;;;;;4979583;28;20041;-62
2021/03/15 07:16:33;;;;;;;6.50;2.92;;;6.70;97.90;;;;;;5003925;28;20127;-62
2021/03/15 07:19:03;;;;;;;6.90;2.88;;;6.80;96.60;;;;;;4975174;28;20076;-63
2021/03/15 07:21:40;;;;;;;6.35;3.10;;;6.90;96.40;;;;;;5007249;28;20081;-62
2021/03/15 07:24:11;;;;;;;7.15;2.75;;;6.90;95.70;;;;;;4986184;28;20505;-62
2021/03/15 07:26:45;;;;;;;6.80;3.40;;;7.00;94.90;;;;;;4993458;28;20141;-62
2021/03/15 07:29:17;;;;;;;8.93;3.63;;;7.10;94.80;;;;;;4991622;28;20600;-62
2021/03/15 07:31:50;;;;;;;7.30;3.30;;;7.20;93.60;;;;;;5009264;28;20129;-62
2021/03/15 07:34:19;;;;;;;6.13;2.97;;;7.20;93.90;;;;;;5017980;28;20060;-62
2021/03/15 07:36:56;;;;;;;6.18;3.15;;;7.30;93.60;;;;;;5070605;28;20032;-62
2021/03/15 07:39:25;;;;;;;9.93;3.13;;;7.30;92.60;;;;;;5072983;28;20058;-62
2021/03/15 07:41:53;;;;;;;7.53;3.20;;;7.40;93.90;;;;;;5072173;28;20049;-63
2021/03/15 07:44:31;;;;;;;6.38;3.53;;;7.40;92.30;;;;;;5054224;28;20047;-62
2021/03/15 07:47:06;;;;;;;8.73;3.05;;;7.50;92.50;;;;;;5069132;28;20076;-62
2021/03/15 07:49:38;;;;;;;7.60;3.70;;;7.60;92.20;;;;;;5038250;28;20147;-62
2021/03/15 07:52:07;;;;;;;7.60;3.05;;;7.60;91.40;;;;;;5071531;28;20051;-62
2021/03/15 07:54:37;;;;;;;6.68;3.00;;;7.70;91.30;;;;;;5052970;28;20029;-63
2021/03/15 07:57:23;;;;;;;6.60;2.72;;;7.70;90.70;;;;;;5053349;28;20144;-62
2021/03/15 07:59:55;;;;;;;10.20;2.95;;;7.90;91.60;;;;;;5070868;28;20044;-62
2021/03/15 08:02:30;;;;;;;8.98;2.97;;;8.00;90.90;;;;;;5034282;28;20094;-62
2021/03/15 08:05:00;;;;;;;11.23;2.80;;;8.20;89.30;;;;;;5066279;28;20124;-62
2021/03/15 08:07:30;;;;;;;7.80;3.05;;;8.30;87.50;;;;;;5068123;28;20049;-62
2021/03/15 08:09:59;;;;;;;8.52;3.47;;;8.40;88.20;;;;;;5050606;28;20048;-63
2021/03/15 08:12:30;;;;;;;7.38;3.58;;;8.60;86.80;;;;;;5062897;28;20040;-62
2021/03/15 08:15:06;;;;;;;6.80;2.90;;;8.70;85.90;;;;;;5052823;28;20419;-62
2021/03/15 08:17:36;;;;;;;6.45;2.63;;;8.80;83.60;;;;;;5069108;28;20048;-62
2021/03/15 08:20:05;;;;;;;6.45;2.95;;;8.90;81.10;;;;;;5071375;28;20064;-62
2021/03/15 08:22:36;;;;;;;6.53;2.63;;;9.00;82.50;;;;;;5048214;28;20036;-62
2021/03/15 08:25:03;;;;;;;7.35;2.22;;;9.10;77.40;;;;;;5073447;28;20044;-63
2021/03/15 08:27:42;;;;;;;3.65;2.10;;;9.10;76.00;;;;;;5054963;28;20046;-62
2021/03/15 08:30:18;;;;;;;7.15;2.60;;;9.10;76.30;;;;;;5072872;28;20037;-62
2021/03/15 08:32:45;;;;;;;6.03;2.05;;;9.20;76.30;;;;;;5058843;28;20041;-61
2021/03/15 08:35:17;;;;;;;5.15;2.10;;;9.20;75.00;;;;;;5053814;28;20040;-63
2021/03/15 08:38:00;;;;;;;3.97;2.42;;;9.20;75.30;;;;;;5046738;28;20036;-64
2021/03/15 08:40:42;;;;;;;5.03;2.33;;;9.30;76.80;;;;;;5050682;28;20697;-61
2021/03/15 08:43:18;;;;;;;5.75;2.10;;;9.50;75.90;;;;;;5069777;28;20121;-61
2021/03/15 08:46:02;;;;;;;4.30;2.00;;;9.70;73.70;;;;;;5066054;28;20468;-61
2021/03/15 08:48:37;;;;;;;4.78;2.20;;;9.70;73.30;;;;;;5048480;28;20048;-61
2021/03/15 08:51:05;;;;;;;4.82;2.15;;;9.80;72.00;;;;;;5047898;28;20533;-62
2021/03/15 08:53:38;;;;;;;5.55;2.55;;;9.80;72.20;;;;;;5051017;28;20499;-61
2021/03/15 08:56:11;;;;;;;4.50;2.20;;;9.90;72.50;;;;;;5069941;28;20087;-62
2021/03/15 08:58:43;;;;;;;4.28;2.28;;;10.00;73.30;;;;;;5069887;28;20051;-62
2021/03/15 09:01:16;;;;;;;4.97;2.13;;;10.10;71.60;;;;;;5066141;28;20040;-61
2021/03/15 09:03:55;;;;;;;4.45;2.38;;;10.20;73.30;;;;;;5062681;28;20097;-61
2021/03/15 09:06:36;;;;;;;5.93;2.97;;;10.30;71.60;;;;;;5050780;28;20064;-63
2021/03/15 09:09:09;;;;;;;7.45;2.72;;;10.40;73.30;;;;;;5062666;28;20044;-63
2021/03/15 09:11:41;;;;;;;5.03;2.50;;;10.50;70.00;;;;;;5029677;28;20055;-64
2021/03/15 09:14:17;;;;;;;5.18;2.22;;;10.60;69.10;;;;;;5051536;28;20462;-62
2021/03/15 09:16:49;;;;;;;5.90;3.03;;;10.60;67.80;;;;;;5073333;28;20033;-62
2021/03/15 09:19:17;;;;;;;5.05;2.30;;;10.50;68.90;;;;;;5072686;28;20035;-62
2021/03/15 09:21:54;;;;;;;5.20;2.30;;;10.50;68.70;;;;;;5061140;28;20531;-61
2021/03/15 09:24:53;;;;;;;5.43;2.08;;;10.50;68.50;;;;;;5065044;28;20052;-61
2021/03/15 09:27:20;;;;;;;6.18;2.78;;;10.50;69.80;;;;;;5073352;28;20052;-62
2021/03/15 09:30:13;;;;;;;8.10;2.60;;;10.50;68.20;;;;;;5066790;28;20044;-62
2021/03/15 09:32:53;;;;;;;5.82;2.92;;;10.50;67.80;;;;;;5047868;28;20653;-61
2021/03/15 09:35:21;;;;;;;6.18;2.70;;;10.40;68.70;;;;;;5069341;28;20420;-62
2021/03/15 09:37:52;;;;;;;8.18;3.13;;;10.50;68.60;;;;;;5051431;28;20047;-62
2021/03/15 09:40:25;;;;;;;3.38;2.15;;;10.50;69.40;;;;;;5041139;28;20083;-61
2021/03/15 09:42:52;;;;;;;6.78;2.50;;;10.60;68.40;;;;;;5068230;28;20052;-62
2021/03/15 09:45:52;;;;;;;7.10;2.95;;;10.60;67.80;;;;;;5050907;28;20045;-63
2021/03/15 09:48:21;;;;;;;6.05;2.67;;;10.70;68.30;;;;;;5068289;28;20094;-63
2021/03/15 09:51:01;;;;;;;4.75;2.42;;;10.70;67.30;;;;;;5035620;28;20055;-61
2021/03/15 09:53:46;;;;;;;4.43;1.90;;;10.80;66.90;;;;;;5065782;28;20063;-61
2021/03/15 09:56:17;;;;;;;5.32;2.17;;;10.90;66.40;;;;;;5047186;28;20055;-60
2021/03/15 09:58:50;;;;;;;6.38;2.22;;;10.80;66.80;;;;;;5061709;28;20072;-62
2021/03/15 10:01:22;;;;;;;7.28;2.40;;;10.90;66.50;;;;;;5036011;28;20047;-61
2021/03/15 10:04:12;;;;;;;8.98;3.33;;;11.00;66.60;;;;;;5001164;28;20145;-61
2021/03/15 10:07:11;;;;;;;9.07;2.72;;;11.00;65.60;;;;;;4957820;28;20063;-62
2021/03/15 10:10:15;;;;;;;4.10;2.00;;;11.10;64.70;;;;;;4956043;28;20584;-62
2021/03/15 10:13:09;;;;;;;5.40;2.17;;;11.20;65.70;;;;;;4947205;28;20145;-62
2021/03/15 10:15:39;;;;;;;6.05;2.10;;;11.30;65.70;;;;;;4961720;28;20608;-63
2021/03/15 10:18:21;;;;;;;6.57;2.65;;;11.40;64.50;;;;;;4945504;28;20069;-63
2021/03/15 10:20:57;;;;;;;5.05;2.38;;;11.40;62.80;;;;;;4952361;28;20055;-63
2021/03/15 10:23:32;;;;;;;6.22;3.20;;;11.50;62.90;;;;;;4948401;28;20046;-63
2021/03/15 10:26:04;;;;;;;8.07;3.85;;;11.60;62.00;;;;;;4949551;28;20077;-63
2021/03/15 10:28:40;;;;;;;5.55;2.40;;;11.60;61.90;;;;;;4941584;28;20066;-63
2021/03/15 10:31:26;;;;;;;5.13;2.17;;;11.60;61.10;;;;;;4949303;28;20054;-62
2021/03/15 10:33:58;;;;;;;4.43;2.08;;;11.60;60.50;;;;;;4943497;28;20075;-62
2021/03/15 10:36:31;;;;;;;3.55;1.60;;;11.50;60.00;;;;;;4943207;28;20051;-62
2021/03/15 10:39:25;;;;;;;4.70;2.05;;;11.50;60.10;;;;;;4944458;28;20055;-63
2021/03/15 10:41:53;;;;;;;4.38;1.27;;;11.50;60.60;;;;;;4994049;28;20480;-63
2021/03/15 10:44:27;;;;;;;3.15;1.13;;;11.50;58.50;;;;;;5031931;28;20442;-62
2021/03/15 10:47:00;;;;;;;4.05;2.00;;;11.60;57.60;;;;;;5048699;28;20057;-63
2021/03/15 10:49:32;;;;;;;3.20;1.85;;;11.60;57.40;;;;;;5059242;28;20128;-62
2021/03/15 10:52:37;;;;;;;3.72;1.75;;;11.70;56.90;;;;;;5033267;28;20395;-62
2021/03/15 10:55:31;;;;;;;4.10;2.17;;;11.60;58.00;;;;;;5038869;28;20475;-61
2021/03/15 10:57:58;;;;;;;3.08;1.50;;;11.80;59.60;;;;;;5045011;28;20407;-62
2021/03/15 11:00:28;;;;;;;4.85;1.60;;;12.00;58.60;;;;;;5055176;28;20045;-62
2021/03/15 11:02:57;;;;;;;4.85;1.95;;;12.20;57.90;;;;;;5037738;28;20048;-62
2021/03/15 11:05:24;;;;;;;4.35;2.00;;;12.50;57.30;;;;;;5029729;28;20053;-64
2021/03/15 11:07:52;;;;;;;2.40;1.25;;;12.60;55.80;;;;;;5038617;28;20508;-62
2021/03/15 11:10:28;;;;;;;2.70;1.25;;;12.80;54.00;;;;;;5047975;28;20420;-64
2021/03/15 11:13:19;;;;;;;4.18;1.52;;;12.80;52.30;;;;;;5033479;28;20082;-65
2021/03/15 11:15:54;;;;;;;2.65;1.25;;;13.10;52.40;;;;;;5053688;28;20046;-64
2021/03/15 11:18:27;;;;;;;;;;;13.20;51.40;;;;;;5068228;28;20484;-63
2021/03/15 11:21:02;;;;;;;2.15;1.15;;;13.10;51.90;;;;;;5050163;28;20019;-63
2021/03/15 11:23:55;;;;;;;2.17;1.17;;;13.10;51.70;;;;;;5056054;28;20140;-65
2021/03/15 11:26:55;;;;;;;3.05;1.23;;;13.10;51.80;;;;;;5045324;28;20563;-64
2021/03/15 11:29:36;;;;;;;3.72;1.13;;;13.20;50.00;;;;;;5046458;28;20048;-63
2021/03/15 11:32:10;;;;;;;2.92;1.55;;;13.30;49.80;;;;;;5051439;28;20053;-66
2021/03/15 11:34:49;;;;;;;3.38;1.52;;;13.30;49.60;;;;;;5051803;28;20052;-64
2021/03/15 11:37:26;;;;;;;2.78;1.17;;;13.30;49.00;;;;;;5049385;28;20045;-63
2021/03/15 11:39:59;;;;;;;3.00;1.17;;;13.50;49.80;;;;;;5049260;28;20052;-63
2021/03/15 11:42:32;;;;;;;3.03;1.23;;;13.60;50.40;;;;;;5050312;28;20053;-64
2021/03/15 11:45:11;;;;;;;3.40;1.33;;;13.80;50.30;;;;;;5046983;28;20044;-66
2021/03/15 11:47:41;;;;;;;3.58;1.30;;;14.00;49.20;;;;;;5049465;28;20995;-66
2021/03/15 11:50:25;;;;;;;3.80;1.17;;;14.00;47.90;;;;;;5072479;28;20044;-63
2021/03/15 11:53:06;;;;;;;2.47;1.00;;;14.20;48.90;;;;;;5049272;28;20550;-64
2021/03/15 11:55:35;;;;;;;2.72;1.13;;;14.30;46.60;;;;;;5065075;28;20058;-64
2021/03/15 11:58:05;;;;;;;3.00;1.30;;;14.40;48.40;;;;;;5049121;28;20048;-63
2021/03/15 12:00:31;;;;;;;2.28;0.90;;;14.60;45.70;;;;;;5065845;28;20139;-64
2021/03/15 12:03:13;;;;;;;3.22;1.42;;;14.70;44.50;;;;;;5049205;28;20051;-63
2021/03/15 12:06:06;;;;;;;3.15;1.35;;;14.50;45.40;;;;;;4980781;28;20082;-64
2021/03/15 12:08:49;;;;;;;;;;;14.50;47.70;;;;;;4985100;28;20054;-64
2021/03/15 12:11:17;;;;;;;3.17;1.33;;;14.80;46.40;;;;;;4980265;28;19926;-64
2021/03/15 12:13:43;;;;;;;3.88;1.60;;;14.80;48.10;;;;;;4966820;28;20131;-64
2021/03/15 12:16:11;;;;;;;2.92;1.73;;;14.70;47.80;;;;;;4981366;28;20042;-66
2021/03/15 12:18:38;;;;;;;2.65;1.17;;;14.90;47.60;;;;;;4970472;28;20544;-64
2021/03/15 12:21:08;;;;;;;4.63;1.77;;;15.00;47.60;;;;;;4985004;28;20074;-66
2021/03/15 12:23:36;;;;;;;3.88;1.95;;;15.20;49.10;;;;;;4963754;28;20046;-63
2021/03/15 12:26:03;;;;;;;4.95;2.00;;;15.50;48.10;;;;;;4980146;28;20046;-64
2021/03/15 12:28:39;;;;;;;6.38;3.20;;;15.30;46.90;;;;;;4968453;28;20050;-64
2021/03/15 12:31:33;;;;;;;4.40;1.70;;;15.00;46.30;;;;;;4960815;28;20502;-64
2021/03/15 12:33:59;;;;;;;4.00;1.48;;;15.20;46.70;;;;;;4981268;28;20158;-64
2021/03/15 12:36:27;;;;;;;3.65;1.50;;;15.50;45.80;;;;;;4963739;28;20137;-64
2021/03/15 12:38:56;;;;;;;2.22;1.17;;;15.90;45.40;;;;;;4987224;28;20046;-64
2021/03/15 12:41:25;;;;;;;3.72;1.20;;;16.30;43.70;;;;;;4966994;28;20054;-64
2021/03/15 12:43:52;;;;;;;3.58;1.10;;;16.60;42.70;;;;;;5047771;28;20048;-64
2021/03/15 12:46:25;;;;;;;3.10;1.33;;;17.10;41.00;;;;;;5045680;28;20136;-64
2021/03/15 12:49:19;;;;;;;2.15;1.02;;;17.50;41.30;;;;;;5064392;28;20057;-64
2021/03/15 12:51:48;;;;;;;5.60;1.50;;;18.20;40.50;;;;;;5042441;28;20041;-64
2021/03/15 12:54:16;;;;;;;4.28;1.27;;;17.70;39.10;;;;;;5065838;28;20037;-65
2021/03/15 12:56:51;;;;;;;3.15;1.55;;;17.30;41.00;;;;;;5049261;28;20044;-64
2021/03/15 12:59:22;;;;;;;4.55;1.80;;;16.20;41.60;;;;;;5048799;28;20625;-62
2021/03/15 13:01:51;;;;;;;3.35;1.58;;;15.70;43.10;;;;;;5058321;28;20400;-62
2021/03/15 13:04:18;;;;;;;4.22;1.30;;;16.10;43.70;;;;;;5068959;28;20068;-64
2021/03/15 13:06:51;;;;;;;3.72;1.63;;;16.00;43.50;;;;;;5055064;28;20044;-62
2021/03/15 13:09:56;;;;;;;6.95;2.40;;;15.80;43.60;;;;;;5024726;28;20053;-62
2021/03/15 13:12:41;;;;;;;4.75;1.95;;;15.50;44.40;;;;;;5013764;28;20057;-63
2021/03/15 13:15:14;;;;;;;3.05;1.77;;;15.50;44.40;;;;;;5028942;28;20519;-62
2021/03/15 13:17:52;;;;;;;2.75;1.70;;;15.90;43.90;;;;;;5014043;28;20053;-62
2021/03/15 13:20:26;;;;;;;3.33;1.30;;;16.40;41.30;;;;;;5009787;28;20386;-62
2021/03/15 13:22:57;;;;;;;3.58;1.40;;;16.80;41.80;;;;;;4982630;28;20405;-62
2021/03/15 13:25:32;;;;;;;2.78;1.85;;;16.90;42.10;;;;;;5028529;28;20050;-64